createdAt,value
2018-03-02T00:01:10.203Z,38.43
2018-03-02T00:03:44.457Z,39.17
2018-03-02T00:06:18.326Z,42.03
2018-03-02T00:08:52.373Z,39.10
2018-03-02T00:11:26.169Z,38.13
2018-03-02T00:14:00.887Z,37.50
2018-03-02T00:16:34.888Z,41.43
2018-03-02T00:19:09.435Z,39.67
2018-03-02T00:21:43.537Z,42.23
2018-03-02T00:24:18.261Z,43.90
2018-03-02T00:26:52.245Z,41.00
2018-03-02T00:29:26.897Z,41.77
2018-03-02T00:32:00.761Z,40.27
2018-03-02T00:34:36.239Z,41.40
2018-03-02T00:37:10.270Z,44.23
2018-03-02T00:39:44.168Z,38.70
2018-03-02T00:42:18.034Z,41.63
2018-03-02T00:44:52.994Z,45.03
2018-03-02T00:47:27.631Z,41.37
2018-03-02T00:50:02.554Z,37.80
2018-03-02T00:52:36.413Z,42.80
2018-03-02T00:55:10.338Z,38.37
2018-03-02T00:57:45.161Z,42.87
2018-03-02T01:00:20.663Z,35.40
2018-03-02T01:02:55.135Z,38.50
2018-03-02T01:05:28.808Z,40.37
2018-03-02T01:08:03.001Z,42.00
2018-03-02T01:10:36.818Z,39.70
2018-03-02T01:13:11.601Z,44.90
2018-03-02T01:15:46.572Z,42.60
2018-03-02T01:18:21.549Z,37.90
2018-03-02T01:20:55.639Z,42.13
2018-03-02T01:23:29.577Z,39.00
2018-03-02T01:26:03.784Z,39.07
2018-03-02T01:28:37.486Z,40.53
2018-03-02T01:31:11.376Z,38.80
2018-03-02T01:33:46.069Z,39.30
2018-03-02T01:36:20.210Z,42.00
2018-03-02T01:38:54.295Z,40.00
2018-03-02T01:41:28.193Z,44.63
2018-03-02T01:44:02.111Z,41.20
2018-03-02T01:46:36.317Z,42.57
2018-03-02T01:49:10.263Z,38.93
2018-03-02T01:51:50.083Z,39.37
2018-03-02T01:54:23.741Z,38.93
2018-03-02T01:56:58.181Z,38.17
2018-03-02T01:59:32.109Z,38.50
2018-03-02T02:02:06.725Z,41.07
2018-03-02T02:04:41.631Z,39.57
2018-03-02T02:07:15.819Z,37.90
2018-03-02T02:09:49.666Z,39.03
2018-03-02T02:12:23.457Z,40.37
2018-03-02T02:14:58.177Z,40.03
2018-03-02T02:17:32.339Z,41.57
2018-03-02T02:20:06.635Z,40.33
2018-03-02T02:22:41.145Z,41.17
2018-03-02T02:25:14.977Z,43.20
2018-03-02T02:27:49.180Z,40.93
2018-03-02T02:30:23.680Z,42.57
2018-03-02T02:32:57.952Z,37.07
2018-03-02T02:35:31.714Z,39.73
2018-03-02T02:38:05.365Z,37.60
2018-03-02T02:40:39.173Z,38.27
2018-03-02T02:43:14.379Z,40.80
2018-03-02T02:45:49.685Z,39.40
2018-03-02T02:48:23.610Z,42.37
2018-03-02T02:50:58.212Z,38.20
2018-03-02T02:53:33.287Z,42.30
2018-03-02T02:56:06.990Z,37.90
2018-03-02T02:58:41.028Z,40.90
2018-03-02T03:01:14.889Z,41.60
2018-03-02T03:03:49.809Z,37.40
2018-03-02T03:06:23.541Z,38.83
2018-03-02T03:08:58.155Z,39.03
2018-03-02T03:11:33.989Z,40.50
2018-03-02T03:14:08.382Z,39.40
2018-03-02T03:16:43.853Z,38.40
2018-03-02T03:19:18.041Z,38.83
2018-03-02T03:21:51.903Z,39.43
2018-03-02T03:24:26.251Z,36.30
2018-03-02T03:27:01.019Z,44.53
2018-03-02T03:29:35.503Z,39.50
2018-03-02T03:32:10.127Z,40.13
2018-03-02T03:34:45.786Z,38.93
2018-03-02T03:37:20.308Z,37.17
2018-03-02T03:39:54.355Z,38.13
2018-03-02T03:42:28.021Z,36.23
2018-03-02T03:45:01.932Z,38.30
2018-03-02T03:47:36.822Z,40.60
2018-03-02T03:50:11.334Z,41.50
2018-03-02T03:52:45.774Z,36.17
2018-03-02T03:55:20.282Z,42.97
2018-03-02T03:57:54.413Z,37.83
2018-03-02T04:00:29.147Z,39.23
2018-03-02T04:03:03.331Z,35.80
2018-03-02T04:05:37.042Z,38.80
2018-03-02T04:08:10.749Z,40.17
2018-03-02T04:10:45.215Z,38.37
2018-03-02T04:13:19.166Z,38.03
2018-03-02T04:15:53.793Z,34.33
2018-03-02T04:18:27.961Z,36.77
2018-03-02T04:21:01.690Z,41.27
2018-03-02T04:23:35.381Z,38.30
2018-03-02T04:26:09.149Z,40.60
2018-03-02T04:28:43.039Z,35.97
2018-03-02T04:31:17.549Z,38.80
2018-03-02T04:33:52.262Z,37.60
2018-03-02T04:36:26.388Z,42.80
2018-03-02T04:39:00.355Z,39.63
2018-03-02T04:41:34.382Z,37.03
2018-03-02T04:44:08.827Z,40.80
2018-03-02T04:46:43.002Z,38.13
2018-03-02T04:49:17.639Z,39.50
2018-03-02T04:51:52.102Z,36.80
2018-03-02T04:54:26.817Z,36.57
2018-03-02T04:57:01.559Z,39.30
2018-03-02T04:59:36.666Z,40.63
2018-03-02T05:02:11.922Z,35.90
2018-03-02T05:04:46.265Z,38.13
2018-03-02T05:07:20.188Z,35.90
2018-03-02T05:09:53.871Z,37.13
2018-03-02T05:12:27.729Z,38.90
2018-03-02T05:15:01.691Z,39.80
2018-03-02T05:17:35.495Z,41.17
2018-03-02T05:20:10.293Z,38.63
2018-03-02T05:22:44.025Z,36.40
2018-03-02T05:25:18.613Z,37.50
2018-03-02T05:27:52.677Z,37.03
2018-03-02T05:30:26.560Z,40.90
2018-03-02T05:33:00.937Z,34.53
2018-03-02T05:35:34.819Z,40.87
2018-03-02T05:38:09.915Z,34.87
2018-03-02T05:40:44.033Z,37.07
2018-03-02T05:43:18.865Z,36.07
2018-03-02T05:45:53.451Z,41.90
2018-03-02T05:48:27.585Z,42.83
2018-03-02T05:51:01.738Z,41.60
2018-03-02T05:53:35.547Z,38.57
2018-03-02T05:56:09.439Z,40.63
2018-03-02T05:58:44.162Z,39.53
2018-03-02T06:01:18.168Z,40.57
2018-03-02T06:03:52.129Z,40.43
2018-03-02T06:06:25.996Z,38.20
2018-03-02T06:09:00.005Z,37.23
2018-03-02T06:11:33.751Z,38.80
2018-03-02T06:14:09.346Z,41.70
2018-03-02T06:16:43.758Z,40.50
2018-03-02T06:19:18.687Z,42.00
2018-03-02T06:21:52.668Z,40.03
2018-03-02T06:24:26.658Z,39.17
2018-03-02T06:27:00.490Z,38.30
2018-03-02T06:29:34.264Z,37.20
2018-03-02T06:32:08.015Z,39.37
2018-03-02T06:34:42.654Z,40.23
2018-03-02T06:37:17.483Z,40.13
2018-03-02T06:39:51.530Z,43.03
2018-03-02T06:42:25.273Z,42.57
2018-03-02T06:44:59.141Z,44.20
2018-03-02T06:47:33.785Z,40.80
2018-03-02T06:50:08.237Z,38.67
2018-03-02T06:52:42.584Z,43.20
2018-03-02T06:55:16.477Z,42.87
2018-03-02T06:57:50.713Z,41.33
2018-03-02T07:00:25.302Z,36.60
2018-03-02T07:03:00.105Z,54.63
2018-03-02T07:05:34.215Z,39.83
2018-03-02T07:08:08.029Z,41.13
2018-03-02T07:10:41.711Z,41.13
2018-03-02T07:13:15.460Z,44.60
2018-03-02T07:15:49.265Z,41.53
2018-03-02T07:18:23.079Z,38.30
2018-03-02T07:20:56.918Z,40.77
2018-03-02T07:23:31.466Z,38.37
2018-03-02T07:26:05.460Z,41.17
2018-03-02T07:28:39.649Z,40.30
2018-03-02T07:31:14.072Z,40.70
2018-03-02T07:33:48.728Z,40.70
2018-03-02T07:36:22.888Z,48.07
2018-03-02T07:38:57.573Z,53.57
2018-03-02T07:41:31.933Z,48.23
2018-03-02T07:44:06.040Z,47.33
2018-03-02T07:46:41.324Z,50.70
2018-03-02T07:49:15.401Z,47.67
2018-03-02T07:51:50.223Z,46.50
2018-03-02T07:54:24.224Z,52.60
2018-03-02T07:56:58.143Z,47.97
2018-03-02T07:59:32.110Z,46.50
2018-03-02T08:02:06.004Z,55.40
2018-03-02T08:04:39.952Z,49.90
2018-03-02T08:07:13.667Z,49.07
2018-03-02T08:09:47.712Z,47.67
2018-03-02T08:12:21.642Z,47.23
2018-03-02T08:14:55.431Z,42.20
2018-03-02T08:17:30.138Z,47.20
2018-03-02T08:20:05.054Z,45.40
2018-03-02T08:22:39.700Z,44.57
2018-03-02T08:25:13.791Z,44.67
2018-03-02T08:27:47.598Z,44.70
2018-03-02T08:30:23.038Z,45.63
2018-03-02T08:32:57.949Z,43.13
2018-03-02T08:35:31.995Z,46.43
2018-03-02T08:38:05.832Z,51.00
2018-03-02T08:40:39.716Z,43.80
2018-03-02T08:43:14.940Z,42.03
2018-03-02T08:45:49.733Z,46.87
2018-03-02T08:48:23.945Z,45.73
2018-03-02T08:50:57.704Z,44.97
2018-03-02T08:53:31.534Z,46.10
2018-03-02T08:56:06.921Z,42.60
2018-03-02T08:58:40.872Z,40.63
2018-03-02T09:01:14.497Z,48.97
2018-03-02T09:03:48.577Z,45.43
2018-03-02T09:06:23.049Z,46.83
2018-03-02T09:08:57.191Z,43.83
2018-03-02T09:11:31.009Z,45.37
2018-03-02T09:14:05.027Z,45.03
2018-03-02T09:16:38.831Z,47.47
2018-03-02T09:19:14.260Z,38.87
2018-03-02T09:21:48.290Z,40.97
2018-03-02T09:24:22.910Z,44.13
2018-03-02T09:26:57.019Z,45.60
2018-03-02T09:29:31.742Z,44.80
2018-03-02T09:32:05.673Z,45.73
2018-03-02T09:34:39.433Z,45.60
2018-03-02T09:37:13.276Z,44.13
2018-03-02T09:39:47.314Z,40.60
2018-03-02T09:42:21.852Z,48.07
2018-03-02T09:44:55.927Z,47.57
2018-03-02T09:47:29.680Z,46.07
2018-03-02T09:50:04.742Z,48.33
2018-03-02T09:52:39.762Z,46.97
2018-03-02T09:55:13.774Z,45.53
2018-03-02T09:57:47.489Z,47.07
2018-03-02T10:00:22.126Z,46.83
2018-03-02T10:02:57.110Z,47.77
2018-03-02T10:05:31.748Z,44.00
2018-03-02T10:08:05.781Z,45.60
2018-03-02T10:10:39.613Z,40.20
2018-03-02T10:13:13.461Z,43.43
2018-03-02T10:15:48.664Z,48.97
2018-03-02T10:18:22.733Z,40.90
2018-03-02T10:20:56.805Z,47.10
2018-03-02T10:23:31.253Z,43.40
2018-03-02T10:26:05.470Z,42.07
2018-03-02T10:28:39.278Z,48.57
2018-03-02T10:31:13.246Z,42.07
2018-03-02T10:33:47.705Z,47.43
2018-03-02T10:36:21.762Z,42.60
2018-03-02T10:38:55.576Z,39.87
2018-03-02T10:41:30.230Z,45.83
2018-03-02T10:44:04.195Z,51.10
2018-03-02T10:46:38.052Z,46.00
2018-03-02T10:49:11.875Z,40.80
2018-03-02T10:51:45.736Z,44.70
2018-03-02T10:54:19.441Z,43.13
2018-03-02T10:56:53.241Z,41.57
2018-03-02T10:59:27.866Z,44.17
2018-03-02T11:02:07.086Z,45.80
2018-03-02T11:04:46.973Z,45.10
2018-03-02T11:07:21.613Z,43.43
2018-03-02T11:09:55.251Z,46.90
2018-03-02T11:12:29.295Z,40.93
2018-03-02T11:15:03.049Z,41.13
2018-03-02T11:17:37.725Z,46.30
2018-03-02T11:20:12.052Z,46.17
2018-03-02T11:22:46.622Z,50.58
2018-03-02T11:25:21.686Z,46.80
2018-03-02T11:27:55.776Z,53.20
2018-03-02T11:30:30.375Z,49.10
2018-03-02T11:33:04.526Z,46.67
2018-03-02T11:35:39.251Z,46.87
2018-03-02T11:38:13.394Z,48.47
2018-03-02T11:40:48.865Z,53.13
2018-03-02T11:43:22.909Z,60.77
2018-03-02T11:45:57.128Z,58.10
2018-03-02T11:48:31.058Z,53.77
2018-03-02T11:51:04.909Z,70.10
2018-03-02T11:53:38.903Z,52.60
2018-03-02T11:56:12.690Z,50.77
2018-03-02T11:58:48.199Z,47.87
2018-03-02T12:01:22.502Z,47.63
2018-03-02T12:03:57.435Z,48.97
2018-03-02T12:06:31.478Z,46.53
2018-03-02T12:09:06.178Z,44.13
2018-03-02T12:11:40.360Z,48.07
2018-03-02T12:14:14.329Z,44.60
2018-03-02T12:16:48.921Z,48.53
2018-03-02T12:19:22.789Z,42.23
2018-03-02T12:21:57.436Z,43.13
2018-03-02T12:24:31.475Z,48.87
2018-03-02T12:27:05.511Z,46.37
2018-03-02T12:29:40.318Z,47.77
2018-03-02T12:32:14.353Z,50.40
2018-03-02T12:34:49.080Z,47.37
2018-03-02T12:37:23.121Z,50.67
2018-03-02T12:39:57.314Z,46.37
2018-03-02T12:42:31.188Z,46.30
2018-03-02T12:45:05.294Z,47.80
2018-03-02T12:47:39.029Z,45.23
2018-03-02T12:50:13.463Z,46.97
2018-03-02T12:52:47.982Z,45.83
2018-03-02T12:55:21.759Z,50.33
2018-03-02T12:57:56.277Z,48.33
2018-03-02T13:00:30.334Z,49.77
2018-03-02T13:03:04.595Z,50.13
2018-03-02T13:05:39.161Z,51.07
2018-03-02T13:08:14.462Z,49.33
2018-03-02T13:10:48.638Z,52.37
2018-03-02T13:13:22.573Z,46.70
2018-03-02T13:15:56.702Z,48.00
2018-03-02T13:18:43.066Z,49.27
2018-03-02T13:21:18.033Z,55.00
2018-03-02T13:23:52.028Z,48.53
2018-03-02T13:26:38.524Z,45.43
2018-03-02T13:29:12.584Z,49.07
2018-03-02T13:31:47.267Z,52.53
2018-03-02T13:34:33.797Z,49.40
2018-03-02T13:37:07.920Z,51.73
2018-03-02T13:42:46.086Z,51.97
2018-03-02T13:45:19.953Z,44.97
2018-03-02T13:51:08.604Z,48.23
2018-03-02T13:53:43.345Z,53.90
2018-03-02T13:56:29.202Z,46.53
2018-03-02T13:59:03.042Z,47.40
2018-03-02T14:01:37.420Z,45.30
2018-03-02T14:04:23.357Z,50.53
2018-03-02T14:06:57.161Z,57.27
2018-03-02T14:09:31.877Z,44.70
2018-03-02T14:12:05.685Z,51.07
2018-03-02T14:14:40.266Z,51.83
2018-03-02T14:17:14.313Z,52.17
2018-03-02T14:19:48.255Z,50.60
2018-03-02T14:22:22.209Z,49.90
2018-03-02T14:24:56.171Z,52.97
2018-03-02T14:27:30.644Z,45.37
2018-03-02T14:30:05.385Z,48.03
2018-03-02T14:32:39.818Z,49.77
2018-03-02T14:35:13.693Z,48.53
2018-03-02T14:37:47.536Z,46.70
2018-03-02T14:40:21.548Z,55.07
2018-03-02T14:42:55.261Z,51.87
2018-03-02T14:45:29.071Z,42.27
2018-03-02T14:48:03.046Z,49.47
2018-03-02T14:50:37.757Z,52.20
2018-03-02T14:53:12.604Z,48.00
2018-03-02T14:55:46.432Z,52.27
2018-03-02T14:58:20.224Z,46.63
2018-03-02T15:00:53.981Z,50.77
2018-03-02T15:03:27.645Z,50.90
2018-03-02T15:06:01.297Z,53.20
2018-03-02T15:08:35.539Z,52.53
2018-03-02T15:11:09.763Z,52.40
2018-03-02T15:13:43.517Z,48.60
2018-03-02T15:16:17.290Z,54.33
2018-03-02T15:18:51.093Z,54.40
2018-03-02T15:21:24.898Z,48.53
2018-03-02T15:23:58.709Z,51.47
2018-03-02T15:26:32.710Z,52.60
2018-03-02T15:29:07.485Z,51.80
2018-03-02T15:31:41.950Z,50.87
2018-03-02T15:34:16.425Z,50.63
2018-03-02T15:36:50.648Z,47.63
2018-03-02T15:39:24.532Z,53.53
2018-03-02T15:41:58.330Z,50.80
2018-03-02T15:44:33.069Z,53.27
2018-03-02T15:47:07.035Z,52.60
2018-03-02T15:49:40.745Z,50.83
2018-03-02T15:52:14.909Z,55.90
2018-03-02T15:54:49.308Z,56.33
2018-03-02T15:57:23.290Z,50.47
2018-03-02T15:59:57.253Z,47.73
2018-03-02T16:02:32.009Z,53.23
2018-03-02T16:05:06.327Z,46.40
2018-03-02T16:07:40.894Z,49.20
2018-03-02T16:10:14.750Z,56.30
2018-03-02T16:12:49.452Z,57.10
2018-03-02T16:15:23.997Z,51.67
2018-03-02T16:20:55.807Z,51.07
2018-03-02T16:23:29.726Z,60.63
2018-03-02T16:26:04.363Z,54.27
2018-03-02T16:28:38.341Z,50.43
2018-03-02T16:31:13.246Z,61.07
2018-03-02T16:33:47.521Z,51.50
2018-03-02T16:36:21.126Z,57.33
2018-03-02T16:38:54.864Z,50.87
2018-03-02T16:41:29.450Z,50.77
2018-03-02T16:44:03.945Z,55.60
2018-03-02T16:46:38.756Z,57.37
2018-03-02T16:49:14.334Z,51.63
2018-03-02T16:51:48.515Z,50.27
2018-03-02T16:54:22.237Z,56.90
2018-03-02T16:56:56.142Z,52.83
2018-03-02T16:59:30.767Z,59.37
2018-03-02T17:02:05.469Z,57.00
2018-03-02T17:04:39.537Z,62.17
2018-03-02T17:07:13.181Z,60.60
2018-03-02T17:09:48.045Z,72.67
2018-03-02T17:12:21.892Z,67.57
2018-03-02T17:14:55.757Z,60.30
2018-03-02T17:17:29.767Z,55.33
2018-03-02T17:20:04.727Z,58.33
2018-03-02T17:22:40.130Z,58.20
2018-03-02T17:25:14.176Z,58.37
2018-03-02T17:27:48.050Z,56.43
2018-03-02T17:30:22.777Z,62.30
2018-03-02T17:32:56.804Z,56.53
2018-03-02T17:35:30.539Z,59.00
2018-03-02T17:38:05.190Z,57.73
2018-03-02T17:40:39.322Z,65.53
2018-03-02T17:43:13.586Z,63.57
2018-03-02T17:45:47.849Z,63.53
2018-03-02T17:48:21.578Z,61.43
2018-03-02T17:50:55.433Z,65.33
2018-03-02T17:53:29.600Z,58.60
2018-03-02T17:56:03.429Z,66.03
2018-03-02T17:58:37.262Z,66.20
2018-03-02T18:01:11.833Z,70.80
2018-03-02T18:03:45.565Z,69.70
2018-03-02T18:06:19.521Z,77.73
2018-03-02T18:08:53.238Z,72.90
2018-03-02T18:11:27.780Z,67.10
2018-03-02T18:14:01.668Z,69.70
2018-03-02T18:16:36.293Z,71.77
2018-03-02T18:19:10.277Z,71.57
2018-03-02T18:21:44.024Z,67.23
2018-03-02T18:24:17.762Z,69.30
2018-03-02T18:26:52.422Z,75.70
2018-03-02T18:29:26.371Z,67.87
2018-03-02T18:32:01.103Z,68.63
2018-03-02T18:34:34.901Z,67.60
2018-03-02T18:37:08.872Z,71.03
2018-03-02T18:39:43.477Z,66.07
2018-03-02T18:42:17.560Z,73.83
2018-03-02T18:44:52.017Z,69.03
2018-03-02T18:47:25.939Z,67.07
2018-03-02T18:50:00.338Z,66.97
2018-03-02T18:52:34.320Z,74.87
2018-03-02T18:55:08.218Z,73.17
2018-03-02T18:57:42.006Z,75.13
2018-03-02T19:00:16.580Z,74.20
2018-03-02T19:02:50.601Z,74.27
2018-03-02T19:05:24.425Z,70.77
2018-03-02T19:07:59.677Z,72.73
2018-03-02T19:10:34.129Z,77.47
2018-03-02T19:13:08.073Z,76.87
2018-03-02T19:15:42.837Z,75.33
2018-03-02T19:18:16.686Z,83.33
2018-03-02T19:20:50.357Z,71.53
2018-03-02T19:23:26.188Z,70.00
2018-03-02T19:26:00.323Z,73.00
2018-03-02T19:28:35.696Z,67.90
2018-03-02T19:31:16.228Z,68.97
2018-03-02T19:33:51.443Z,72.40
2018-03-02T19:36:27.202Z,69.93
2018-03-02T19:39:05.372Z,67.73
2018-03-02T19:41:39.291Z,75.13
2018-03-02T19:44:15.371Z,69.87
2018-03-02T19:46:51.863Z,75.90
2018-03-02T19:49:26.597Z,73.37
2018-03-02T19:52:01.415Z,76.50
2018-03-02T19:54:36.175Z,74.83
2018-03-02T19:57:10.955Z,76.77
2018-03-02T19:59:47.241Z,86.33
2018-03-02T20:02:23.090Z,73.77
2018-03-02T20:04:56.822Z,70.10
2018-03-02T20:07:32.715Z,73.37
2018-03-02T20:10:08.031Z,78.77
2018-03-02T20:12:43.564Z,73.80
2018-03-02T20:15:19.621Z,81.17
2018-03-02T20:17:54.313Z,74.77
2018-03-02T20:20:29.380Z,76.60
2018-03-02T20:23:04.693Z,71.83
2018-03-02T20:25:39.708Z,75.70
2018-03-02T20:28:16.690Z,73.90
2018-03-02T20:30:52.090Z,72.80
2018-03-02T20:33:27.792Z,75.73
2018-03-02T20:36:04.579Z,70.73
2018-03-02T20:38:38.937Z,77.53
2018-03-02T20:41:16.113Z,79.27
2018-03-02T20:43:52.160Z,76.80
2018-03-02T20:46:28.900Z,73.77
2018-03-02T20:49:06.647Z,71.53
2018-03-02T20:51:41.548Z,75.30
2018-03-02T20:54:15.448Z,76.97
2018-03-02T20:56:51.718Z,78.13
2018-03-02T20:59:27.353Z,77.73
2018-03-02T21:02:03.388Z,72.50
2018-03-02T21:04:38.845Z,74.13
2018-03-02T21:07:13.209Z,75.00
2018-03-02T21:12:29.392Z,77.87
2018-03-02T21:15:03.221Z,74.43
2018-03-02T21:17:38.364Z,76.33
2018-03-02T21:20:12.591Z,72.10
2018-03-02T21:22:47.377Z,75.73
2018-03-02T21:25:21.369Z,74.87
2018-03-02T21:27:55.285Z,73.87
2018-03-02T21:30:29.900Z,74.77
2018-03-02T21:33:04.001Z,75.57
2018-03-02T21:35:39.446Z,77.87
2018-03-02T21:38:13.501Z,74.73
2018-03-02T21:40:47.209Z,74.27
2018-03-02T21:43:21.021Z,70.67
2018-03-02T21:45:54.832Z,74.43
2018-03-02T21:48:28.598Z,75.67
2018-03-02T21:51:02.328Z,75.67
2018-03-02T21:53:35.967Z,79.47
2018-03-02T21:56:09.822Z,72.83
2018-03-02T21:58:43.634Z,72.37
2018-03-02T22:01:19.037Z,71.43
2018-03-02T22:03:52.994Z,76.17
2018-03-02T22:06:27.457Z,77.33
2018-03-02T22:09:01.518Z,76.27
2018-03-02T22:11:35.912Z,75.80
2018-03-02T22:14:10.065Z,80.10
2018-03-02T22:16:45.481Z,71.40
2018-03-02T22:19:19.223Z,78.30
2018-03-02T22:21:52.961Z,81.87
2018-03-02T22:24:26.889Z,81.27
2018-03-02T22:27:00.514Z,84.23
2018-03-02T22:29:36.932Z,78.17
2018-03-02T22:32:10.873Z,84.03
2018-03-02T22:34:45.499Z,81.00
2018-03-02T22:37:19.519Z,81.83
2018-03-02T22:39:54.046Z,79.13
2018-03-02T22:42:28.646Z,85.93
2018-03-02T22:45:03.387Z,83.50
2018-03-02T22:47:37.353Z,78.30
2018-03-02T22:50:12.344Z,82.63
2018-03-02T22:52:46.662Z,86.23
2018-03-02T22:55:20.551Z,86.77
2018-03-02T22:57:54.239Z,81.57
2018-03-02T23:00:28.076Z,83.17
2018-03-02T23:03:02.584Z,77.63
2018-03-02T23:05:36.641Z,74.20
2018-03-02T23:08:10.466Z,79.30
2018-03-02T23:10:45.149Z,76.87
2018-03-02T23:13:18.846Z,78.10
2018-03-02T23:15:53.435Z,75.20
2018-03-02T23:18:27.209Z,75.30
2018-03-02T23:21:01.936Z,76.30
2018-03-02T23:23:35.669Z,78.47
2018-03-02T23:26:09.402Z,76.23
2018-03-02T23:28:43.933Z,78.13
2018-03-02T23:31:18.466Z,75.37
2018-03-02T23:33:52.362Z,82.10
2018-03-02T23:36:26.302Z,74.77
2018-03-02T23:39:00.820Z,73.57
2018-03-02T23:41:34.990Z,77.57
2018-03-02T23:44:08.795Z,77.67
2018-03-02T23:46:42.679Z,83.53
2018-03-02T23:49:16.863Z,77.77
2018-03-02T23:51:50.962Z,76.83
2018-03-02T23:54:26.155Z,72.93
2018-03-02T23:57:01.538Z,83.17
2018-03-02T23:59:36.009Z,79.20
